sensor_id;sensor_type;location;lat;lon;timestamp;temperature;humidity
82243;DHT22;71844;51.528;4.442;2024-01-16T00:01:09;0.70;90.50
82243;DHT22;71844;51.528;4.442;2024-01-16T00:03:38;0.70;90.50
82243;DHT22;71844;51.528;4.442;2024-01-16T00:06:08;0.70;90.50
82243;DHT22;71844;51.528;4.442;2024-01-16T00:08:35;0.70;90.60
82243;DHT22;71844;51.528;4.442;2024-01-16T00:11:03;0.70;90.60
82243;DHT22;71844;51.528;4.442;2024-01-16T00:13:33;0.70;90.70
82243;DHT22;71844;51.528;4.442;2024-01-16T00:16:03;0.70;90.60
82243;DHT22;71844;51.528;4.442;2024-01-16T00:18:31;0.70;90.70
82243;DHT22;71844;51.528;4.442;2024-01-16T00:21:01;0.70;90.60
82243;DHT22;71844;51.528;4.442;2024-01-16T00:23:29;0.70;90.60
82243;DHT22;71844;51.528;4.442;2024-01-16T00:26:00;0.70;90.60
82243;DHT22;71844;51.528;4.442;2024-01-16T00:28:33;0.70;90.60
82243;DHT22;71844;51.528;4.442;2024-01-16T00:31:00;0.80;90.60
82243;DHT22;71844;51.528;4.442;2024-01-16T00:33:27;0.80;90.70
82243;DHT22;71844;51.528;4.442;2024-01-16T00:35:54;0.80;90.60
82243;DHT22;71844;51.528;4.442;2024-01-16T00:38:21;0.80;90.60
82243;DHT22;71844;51.528;4.442;2024-01-16T00:40:49;0.80;90.50
82243;DHT22;71844;51.528;4.442;2024-01-16T00:43:19;0.80;90.50
82243;DHT22;71844;51.528;4.442;2024-01-16T00:45:46;0.80;90.50
82243;DHT22;71844;51.528;4.442;2024-01-16T00:48:14;0.80;90.60
82243;DHT22;71844;51.528;4.442;2024-01-16T00:50:42;0.80;90.70
82243;DHT22;71844;51.528;4.442;2024-01-16T00:53:10;0.90;90.60
82243;DHT22;71844;51.528;4.442;2024-01-16T00:55:36;0.90;90.70
82243;DHT22;71844;51.528;4.442;2024-01-16T00:58:03;0.90;90.70
82243;DHT22;71844;51.528;4.442;2024-01-16T01:00:30;0.90;90.50
82243;DHT22;71844;51.528;4.442;2024-01-16T01:02:57;0.90;90.50
82243;DHT22;71844;51.528;4.442;2024-01-16T01:05:27;0.90;90.50
82243;DHT22;71844;51.528;4.442;2024-01-16T01:07:55;0.90;90.30
82243;DHT22;71844;51.528;4.442;2024-01-16T01:10:27;0.90;90.40
82243;DHT22;71844;51.528;4.442;2024-01-16T01:12:54;0.90;90.30
82243;DHT22;71844;51.528;4.442;2024-01-16T01:15:20;0.90;90.30
82243;DHT22;71844;51.528;4.442;2024-01-16T01:17:51;0.90;90.20
82243;DHT22;71844;51.528;4.442;2024-01-16T01:20:19;0.90;90.20
82243;DHT22;71844;51.528;4.442;2024-01-16T01:22:47;0.90;90.20
82243;DHT22;71844;51.528;4.442;2024-01-16T01:25:15;0.90;90.30
82243;DHT22;71844;51.528;4.442;2024-01-16T01:27:44;0.90;90.30
82243;DHT22;71844;51.528;4.442;2024-01-16T01:30:11;0.90;90.20
82243;DHT22;71844;51.528;4.442;2024-01-16T01:32:39;0.90;90.30
82243;DHT22;71844;51.528;4.442;2024-01-16T01:35:07;0.90;90.30
82243;DHT22;71844;51.528;4.442;2024-01-16T01:40:09;0.90;90.20
82243;DHT22;71844;51.528;4.442;2024-01-16T01:42:37;0.90;90.10
82243;DHT22;71844;51.528;4.442;2024-01-16T01:45:05;0.90;90.10
82243;DHT22;71844;51.528;4.442;2024-01-16T01:47:32;0.90;90.00
82243;DHT22;71844;51.528;4.442;2024-01-16T01:49:59;0.90;90.00
82243;DHT22;71844;51.528;4.442;2024-01-16T01:52:27;0.90;89.90
82243;DHT22;71844;51.528;4.442;2024-01-16T01:54:54;0.90;89.80
82243;DHT22;71844;51.528;4.442;2024-01-16T01:57:21;0.90;89.80
82243;DHT22;71844;51.528;4.442;2024-01-16T01:59:48;0.90;89.80
82243;DHT22;71844;51.528;4.442;2024-01-16T02:02:15;1.00;89.80
82243;DHT22;71844;51.528;4.442;2024-01-16T02:04:43;0.90;89.70
82243;DHT22;71844;51.528;4.442;2024-01-16T02:07:10;0.90;89.70
82243;DHT22;71844;51.528;4.442;2024-01-16T02:09:37;0.90;89.60
82243;DHT22;71844;51.528;4.442;2024-01-16T02:12:05;0.90;89.60
82243;DHT22;71844;51.528;4.442;2024-01-16T02:14:33;0.90;89.40
82243;DHT22;71844;51.528;4.442;2024-01-16T02:17:00;0.90;89.40
82243;DHT22;71844;51.528;4.442;2024-01-16T02:19:27;0.90;89.30
82243;DHT22;71844;51.528;4.442;2024-01-16T02:21:59;0.90;89.10
82243;DHT22;71844;51.528;4.442;2024-01-16T02:24:27;0.90;89.10
82243;DHT22;71844;51.528;4.442;2024-01-16T02:26:53;0.90;89.10
82243;DHT22;71844;51.528;4.442;2024-01-16T02:29:20;0.90;89.00
82243;DHT22;71844;51.528;4.442;2024-01-16T02:31:47;0.80;89.00
82243;DHT22;71844;51.528;4.442;2024-01-16T02:34:14;0.80;89.00
82243;DHT22;71844;51.528;4.442;2024-01-16T02:36:41;0.80;89.00
82243;DHT22;71844;51.528;4.442;2024-01-16T02:39:08;0.80;89.00
82243;DHT22;71844;51.528;4.442;2024-01-16T02:41:35;0.80;89.00
82243;DHT22;71844;51.528;4.442;2024-01-16T02:44:02;0.80;88.90
82243;DHT22;71844;51.528;4.442;2024-01-16T02:46:29;0.80;88.90
82243;DHT22;71844;51.528;4.442;2024-01-16T02:48:55;0.80;88.90
82243;DHT22;71844;51.528;4.442;2024-01-16T02:51:22;0.80;88.70
82243;DHT22;71844;51.528;4.442;2024-01-16T02:53:49;0.80;88.60
82243;DHT22;71844;51.528;4.442;2024-01-16T02:56:16;0.80;88.60
82243;DHT22;71844;51.528;4.442;2024-01-16T02:58:43;0.80;88.50
82243;DHT22;71844;51.528;4.442;2024-01-16T03:01:10;0.80;88.30
82243;DHT22;71844;51.528;4.442;2024-01-16T03:03:37;0.80;88.40
82243;DHT22;71844;51.528;4.442;2024-01-16T03:06:04;0.80;88.30
82243;DHT22;71844;51.528;4.442;2024-01-16T03:08:31;0.70;88.20
82243;DHT22;71844;51.528;4.442;2024-01-16T03:10:58;0.70;88.10
82243;DHT22;71844;51.528;4.442;2024-01-16T03:13:25;0.70;88.10
82243;DHT22;71844;51.528;4.442;2024-01-16T03:15:51;0.70;88.40
82243;DHT22;71844;51.528;4.442;2024-01-16T03:18:18;0.70;88.30
82243;DHT22;71844;51.528;4.442;2024-01-16T03:20:45;0.70;88.00
82243;DHT22;71844;51.528;4.442;2024-01-16T03:23:12;0.70;87.90
82243;DHT22;71844;51.528;4.442;2024-01-16T03:25:40;0.70;87.90
82243;DHT22;71844;51.528;4.442;2024-01-16T03:28:07;0.70;87.90
82243;DHT22;71844;51.528;4.442;2024-01-16T03:30:35;0.60;87.90
82243;DHT22;71844;51.528;4.442;2024-01-16T03:33:02;0.60;87.90
82243;DHT22;71844;51.528;4.442;2024-01-16T03:35:30;0.60;87.90
82243;DHT22;71844;51.528;4.442;2024-01-16T03:37:57;0.50;87.90
82243;DHT22;71844;51.528;4.442;2024-01-16T03:40:23;0.50;88.10
82243;DHT22;71844;51.528;4.442;2024-01-16T03:42:50;0.50;88.10
82243;DHT22;71844;51.528;4.442;2024-01-16T03:45:17;0.40;88.20
82243;DHT22;71844;51.528;4.442;2024-01-16T03:47:44;0.40;88.20
82243;DHT22;71844;51.528;4.442;2024-01-16T03:50:11;0.40;88.10
82243;DHT22;71844;51.528;4.442;2024-01-16T03:52:38;0.40;88.40
82243;DHT22;71844;51.528;4.442;2024-01-16T03:55:05;0.40;88.50
82243;DHT22;71844;51.528;4.442;2024-01-16T03:57:32;0.30;88.80
82243;DHT22;71844;51.528;4.442;2024-01-16T03:59:59;0.30;89.00
82243;DHT22;71844;51.528;4.442;2024-01-16T04:02:26;0.30;89.00
82243;DHT22;71844;51.528;4.442;2024-01-16T04:04:53;0.30;89.10
82243;DHT22;71844;51.528;4.442;2024-01-16T04:07:22;0.30;89.20
82243;DHT22;71844;51.528;4.442;2024-01-16T04:09:50;0.20;89.30
82243;DHT22;71844;51.528;4.442;2024-01-16T04:12:17;0.20;89.40
82243;DHT22;71844;51.528;4.442;2024-01-16T04:14:44;0.20;89.30
82243;DHT22;71844;51.528;4.442;2024-01-16T04:17:10;0.20;89.30
82243;DHT22;71844;51.528;4.442;2024-01-16T04:19:37;0.20;89.30
82243;DHT22;71844;51.528;4.442;2024-01-16T04:22:04;0.20;89.30
82243;DHT22;71844;51.528;4.442;2024-01-16T04:24:31;0.20;89.20
82243;DHT22;71844;51.528;4.442;2024-01-16T04:26:58;0.20;89.20
82243;DHT22;71844;51.528;4.442;2024-01-16T04:29:25;0.20;89.30
82243;DHT22;71844;51.528;4.442;2024-01-16T04:31:52;0.20;89.10
82243;DHT22;71844;51.528;4.442;2024-01-16T04:34:19;0.20;89.20
82243;DHT22;71844;51.528;4.442;2024-01-16T04:36:46;0.20;89.10
82243;DHT22;71844;51.528;4.442;2024-01-16T04:39:13;0.20;89.00
82243;DHT22;71844;51.528;4.442;2024-01-16T04:41:40;0.20;88.80
82243;DHT22;71844;51.528;4.442;2024-01-16T04:44:07;0.20;88.90
82243;DHT22;71844;51.528;4.442;2024-01-16T04:46:34;0.20;88.80
82243;DHT22;71844;51.528;4.442;2024-01-16T04:49:01;0.20;88.70
82243;DHT22;71844;51.528;4.442;2024-01-16T04:51:28;0.20;88.70
82243;DHT22;71844;51.528;4.442;2024-01-16T04:53:55;0.20;88.70
82243;DHT22;71844;51.528;4.442;2024-01-16T04:56:22;0.20;88.70
82243;DHT22;71844;51.528;4.442;2024-01-16T04:58:49;0.20;88.70
82243;DHT22;71844;51.528;4.442;2024-01-16T05:01:16;0.20;88.60
82243;DHT22;71844;51.528;4.442;2024-01-16T05:03:46;0.20;88.80
82243;DHT22;71844;51.528;4.442;2024-01-16T05:06:21;0.20;88.40
82243;DHT22;71844;51.528;4.442;2024-01-16T05:08:49;0.20;88.40
82243;DHT22;71844;51.528;4.442;2024-01-16T05:11:19;0.20;88.30
82243;DHT22;71844;51.528;4.442;2024-01-16T05:13:51;0.10;88.40
82243;DHT22;71844;51.528;4.442;2024-01-16T05:16:25;0.10;88.40
82243;DHT22;71844;51.528;4.442;2024-01-16T05:21:41;0.10;88.60
82243;DHT22;71844;51.528;4.442;2024-01-16T05:24:10;0.10;88.40
82243;DHT22;71844;51.528;4.442;2024-01-16T05:26:40;0.20;88.40
82243;DHT22;71844;51.528;4.442;2024-01-16T05:29:12;0.20;88.40
82243;DHT22;71844;51.528;4.442;2024-01-16T05:31:44;0.20;88.40
82243;DHT22;71844;51.528;4.442;2024-01-16T05:34:16;0.20;88.40
82243;DHT22;71844;51.528;4.442;2024-01-16T05:36:46;0.20;88.30
82243;DHT22;71844;51.528;4.442;2024-01-16T05:39:13;0.20;88.30
82243;DHT22;71844;51.528;4.442;2024-01-16T05:41:40;0.20;88.40
82243;DHT22;71844;51.528;4.442;2024-01-16T05:44:07;0.20;88.30
82243;DHT22;71844;51.528;4.442;2024-01-16T05:46:34;0.20;88.40
82243;DHT22;71844;51.528;4.442;2024-01-16T05:49:01;0.20;88.30
82243;DHT22;71844;51.528;4.442;2024-01-16T05:51:28;0.20;88.30
82243;DHT22;71844;51.528;4.442;2024-01-16T05:53:58;0.20;88.20
82243;DHT22;71844;51.528;4.442;2024-01-16T05:56:24;0.20;88.30
82243;DHT22;71844;51.528;4.442;2024-01-16T05:58:51;0.20;88.30
82243;DHT22;71844;51.528;4.442;2024-01-16T06:01:19;0.20;88.30
82243;DHT22;71844;51.528;4.442;2024-01-16T06:03:46;0.20;88.40
82243;DHT22;71844;51.528;4.442;2024-01-16T06:06:16;0.20;88.40
82243;DHT22;71844;51.528;4.442;2024-01-16T06:08:43;0.10;88.30
82243;DHT22;71844;51.528;4.442;2024-01-16T06:11:10;0.10;88.40
82243;DHT22;71844;51.528;4.442;2024-01-16T06:13:40;0.10;88.40
82243;DHT22;71844;51.528;4.442;2024-01-16T06:16:07;0.20;88.50
82243;DHT22;71844;51.528;4.442;2024-01-16T06:18:37;0.20;88.50
82243;DHT22;71844;51.528;4.442;2024-01-16T06:21:04;0.20;88.30
82243;DHT22;71844;51.528;4.442;2024-01-16T06:23:31;0.20;88.20
82243;DHT22;71844;51.528;4.442;2024-01-16T06:25:59;0.20;88.30
82243;DHT22;71844;51.528;4.442;2024-01-16T06:28:26;0.20;88.30
82243;DHT22;71844;51.528;4.442;2024-01-16T06:30:53;0.20;88.20
82243;DHT22;71844;51.528;4.442;2024-01-16T06:33:20;0.20;88.30
82243;DHT22;71844;51.528;4.442;2024-01-16T06:35:47;0.20;88.00
82243;DHT22;71844;51.528;4.442;2024-01-16T06:38:19;0.20;88.00
82243;DHT22;71844;51.528;4.442;2024-01-16T06:40:46;0.20;88.10
82243;DHT22;71844;51.528;4.442;2024-01-16T06:43:20;0.20;88.00
82243;DHT22;71844;51.528;4.442;2024-01-16T06:45:47;0.10;88.20
82243;DHT22;71844;51.528;4.442;2024-01-16T06:48:13;0.10;88.00
82243;DHT22;71844;51.528;4.442;2024-01-16T06:50:41;0.10;88.00
82243;DHT22;71844;51.528;4.442;2024-01-16T06:53:08;0.10;87.70
82243;DHT22;71844;51.528;4.442;2024-01-16T06:55:34;0.10;87.70
82243;DHT22;71844;51.528;4.442;2024-01-16T06:58:01;0.10;87.90
82243;DHT22;71844;51.528;4.442;2024-01-16T07:00:29;0.10;87.90
82243;DHT22;71844;51.528;4.442;2024-01-16T07:02:56;0.10;87.80
82243;DHT22;71844;51.528;4.442;2024-01-16T07:05:23;0.10;87.60
82243;DHT22;71844;51.528;4.442;2024-01-16T07:07:50;0.10;87.70
82243;DHT22;71844;51.528;4.442;2024-01-16T07:10:17;0.10;87.50
82243;DHT22;71844;51.528;4.442;2024-01-16T07:12:49;0.10;87.50
82243;DHT22;71844;51.528;4.442;2024-01-16T07:15:18;0.10;87.40
82243;DHT22;71844;51.528;4.442;2024-01-16T07:17:45;0.10;87.40
82243;DHT22;71844;51.528;4.442;2024-01-16T07:20:12;0.10;87.40
82243;DHT22;71844;51.528;4.442;2024-01-16T07:22:39;0.10;87.30
82243;DHT22;71844;51.528;4.442;2024-01-16T07:25:07;0.10;87.20
82243;DHT22;71844;51.528;4.442;2024-01-16T07:27:34;0.10;87.10
82243;DHT22;71844;51.528;4.442;2024-01-16T07:30:01;0.10;87.20
82243;DHT22;71844;51.528;4.442;2024-01-16T07:32:31;0.10;87.10
82243;DHT22;71844;51.528;4.442;2024-01-16T07:34:59;0.10;87.00
82243;DHT22;71844;51.528;4.442;2024-01-16T07:37:26;0.10;86.90
82243;DHT22;71844;51.528;4.442;2024-01-16T07:39:52;0.10;86.60
82243;DHT22;71844;51.528;4.442;2024-01-16T07:42:19;0.10;86.90
82243;DHT22;71844;51.528;4.442;2024-01-16T07:44:46;0.10;86.60
82243;DHT22;71844;51.528;4.442;2024-01-16T07:47:13;0.10;86.50
82243;DHT22;71844;51.528;4.442;2024-01-16T07:49:40;0.10;86.40
82243;DHT22;71844;51.528;4.442;2024-01-16T07:52:07;0.10;86.40
82243;DHT22;71844;51.528;4.442;2024-01-16T07:54:34;0.10;86.50
82243;DHT22;71844;51.528;4.442;2024-01-16T07:57:00;0.10;86.40
82243;DHT22;71844;51.528;4.442;2024-01-16T07:59:27;0.10;86.30
82243;DHT22;71844;51.528;4.442;2024-01-16T08:01:54;0.10;86.40
82243;DHT22;71844;51.528;4.442;2024-01-16T08:04:21;0.10;85.80
82243;DHT22;71844;51.528;4.442;2024-01-16T08:06:48;0.10;85.60
82243;DHT22;71844;51.528;4.442;2024-01-16T08:09:16;0.10;86.20
82243;DHT22;71844;51.528;4.442;2024-01-16T08:11:44;0.10;85.90
82243;DHT22;71844;51.528;4.442;2024-01-16T08:14:11;0.10;85.70
82243;DHT22;71844;51.528;4.442;2024-01-16T08:16:38;0.10;85.60
82243;DHT22;71844;51.528;4.442;2024-01-16T08:19:04;0.20;85.70
82243;DHT22;71844;51.528;4.442;2024-01-16T08:21:31;0.20;85.70
82243;DHT22;71844;51.528;4.442;2024-01-16T08:23:58;0.20;85.10
82243;DHT22;71844;51.528;4.442;2024-01-16T08:26:25;0.20;85.10
82243;DHT22;71844;51.528;4.442;2024-01-16T08:28:52;0.20;84.40
82243;DHT22;71844;51.528;4.442;2024-01-16T08:31:19;0.20;84.80
82243;DHT22;71844;51.528;4.442;2024-01-16T08:33:46;0.20;85.10
82243;DHT22;71844;51.528;4.442;2024-01-16T08:36:18;0.20;84.90
82243;DHT22;71844;51.528;4.442;2024-01-16T08:38:45;0.30;84.90
82243;DHT22;71844;51.528;4.442;2024-01-16T08:41:11;0.30;84.60
82243;DHT22;71844;51.528;4.442;2024-01-16T08:43:38;0.30;84.50
82243;DHT22;71844;51.528;4.442;2024-01-16T08:46:05;0.30;84.60
82243;DHT22;71844;51.528;4.442;2024-01-16T08:48:33;0.30;84.70
82243;DHT22;71844;51.528;4.442;2024-01-16T08:51:00;0.30;85.20
82243;DHT22;71844;51.528;4.442;2024-01-16T08:53:30;0.30;84.90
82243;DHT22;71844;51.528;4.442;2024-01-16T08:55:57;0.30;84.80
82243;DHT22;71844;51.528;4.442;2024-01-16T08:58:24;0.40;84.70
82243;DHT22;71844;51.528;4.442;2024-01-16T09:00:51;0.40;84.90
82243;DHT22;71844;51.528;4.442;2024-01-16T09:03:18;0.40;84.00
82243;DHT22;71844;51.528;4.442;2024-01-16T09:05:45;0.40;84.50
82243;DHT22;71844;51.528;4.442;2024-01-16T09:08:12;0.40;84.60
82243;DHT22;71844;51.528;4.442;2024-01-16T09:13:15;0.50;84.70
82243;DHT22;71844;51.528;4.442;2024-01-16T09:15:41;0.60;84.20
82243;DHT22;71844;51.528;4.442;2024-01-16T09:18:08;0.60;84.00
82243;DHT22;71844;51.528;4.442;2024-01-16T09:20:35;0.70;84.10
82243;DHT22;71844;51.528;4.442;2024-01-16T09:23:03;0.80;84.00
82243;DHT22;71844;51.528;4.442;2024-01-16T09:25:30;0.80;83.60
82243;DHT22;71844;51.528;4.442;2024-01-16T09:27:56;0.90;83.70
82243;DHT22;71844;51.528;4.442;2024-01-16T09:30:23;1.00;83.60
82243;DHT22;71844;51.528;4.442;2024-01-16T09:32:50;1.10;83.70
82243;DHT22;71844;51.528;4.442;2024-01-16T09:35:17;1.10;83.80
82243;DHT22;71844;51.528;4.442;2024-01-16T09:37:44;1.20;83.50
82243;DHT22;71844;51.528;4.442;2024-01-16T09:40:11;1.20;82.80
82243;DHT22;71844;51.528;4.442;2024-01-16T09:42:40;1.20;82.70
82243;DHT22;71844;51.528;4.442;2024-01-16T09:45:10;1.20;82.20
82243;DHT22;71844;51.528;4.442;2024-01-16T09:47:38;1.20;82.70
82243;DHT22;71844;51.528;4.442;2024-01-16T09:50:06;1.20;82.70
82243;DHT22;71844;51.528;4.442;2024-01-16T09:52:32;1.20;82.10
82243;DHT22;71844;51.528;4.442;2024-01-16T09:54:59;1.10;81.20
82243;DHT22;71844;51.528;4.442;2024-01-16T09:57:28;1.10;81.10
82243;DHT22;71844;51.528;4.442;2024-01-16T09:59:56;1.10;81.90
82243;DHT22;71844;51.528;4.442;2024-01-16T10:02:24;1.20;82.40
82243;DHT22;71844;51.528;4.442;2024-01-16T10:04:51;1.70;83.30
82243;DHT22;71844;51.528;4.442;2024-01-16T10:07:19;2.50;83.00
82243;DHT22;71844;51.528;4.442;2024-01-16T10:09:52;3.20;81.50
82243;DHT22;71844;51.528;4.442;2024-01-16T10:12:19;3.80;80.20
82243;DHT22;71844;51.528;4.442;2024-01-16T10:14:46;4.40;77.00
82243;DHT22;71844;51.528;4.442;2024-01-16T10:17:13;4.90;77.50
82243;DHT22;71844;51.528;4.442;2024-01-16T10:19:51;5.40;76.00
82243;DHT22;71844;51.528;4.442;2024-01-16T10:22:22;5.80;74.70
82243;DHT22;71844;51.528;4.442;2024-01-16T10:25:07;6.00;72.60
82243;DHT22;71844;51.528;4.442;2024-01-16T10:27:36;6.30;70.80
82243;DHT22;71844;51.528;4.442;2024-01-16T10:30:03;6.60;69.80
82243;DHT22;71844;51.528;4.442;2024-01-16T10:32:42;6.80;68.90
82243;DHT22;71844;51.528;4.442;2024-01-16T10:35:11;6.90;66.60
82243;DHT22;71844;51.528;4.442;2024-01-16T10:37:49;6.90;66.70
82243;DHT22;71844;51.528;4.442;2024-01-16T10:40:17;7.10;65.60
82243;DHT22;71844;51.528;4.442;2024-01-16T10:42:59;7.10;66.20
82243;DHT22;71844;51.528;4.442;2024-01-16T10:45:26;7.20;64.50
82243;DHT22;71844;51.528;4.442;2024-01-16T10:48:07;7.30;65.30
82243;DHT22;71844;51.528;4.442;2024-01-16T10:50:36;7.20;64.70
82243;DHT22;71844;51.528;4.442;2024-01-16T10:53:05;7.20;64.50
82243;DHT22;71844;51.528;4.442;2024-01-16T10:55:50;7.50;64.90
82243;DHT22;71844;51.528;4.442;2024-01-16T10:58:22;7.70;64.10
82243;DHT22;71844;51.528;4.442;2024-01-16T11:00:52;7.80;62.70
82243;DHT22;71844;51.528;4.442;2024-01-16T11:06:08;8.30;60.00
82243;DHT22;71844;51.528;4.442;2024-01-16T11:08:36;8.70;62.70
82243;DHT22;71844;51.528;4.442;2024-01-16T11:11:04;9.00;62.00
82243;DHT22;71844;51.528;4.442;2024-01-16T11:13:33;9.10;61.20
82243;DHT22;71844;51.528;4.442;2024-01-16T11:16:04;9.20;61.60
82243;DHT22;71844;51.528;4.442;2024-01-16T11:18:33;9.00;54.70
82243;DHT22;71844;51.528;4.442;2024-01-16T11:21:05;8.80;59.90
82243;DHT22;71844;51.528;4.442;2024-01-16T11:23:37;8.80;60.80
82243;DHT22;71844;51.528;4.442;2024-01-16T11:26:29;8.80;61.50
82243;DHT22;71844;51.528;4.442;2024-01-16T11:29:00;8.80;60.00
82243;DHT22;71844;51.528;4.442;2024-01-16T11:31:31;8.90;63.30
82243;DHT22;71844;51.528;4.442;2024-01-16T11:33:59;9.00;63.80
82243;DHT22;71844;51.528;4.442;2024-01-16T11:39:20;9.40;63.10
82243;DHT22;71844;51.528;4.442;2024-01-16T11:41:57;9.60;63.60
82243;DHT22;71844;51.528;4.442;2024-01-16T11:44:48;9.80;63.30
82243;DHT22;71844;51.528;4.442;2024-01-16T11:47:19;9.70;58.60
82243;DHT22;71844;51.528;4.442;2024-01-16T11:49:47;9.30;60.80
82243;DHT22;71844;51.528;4.442;2024-01-16T11:52:14;9.00;59.40
82243;DHT22;71844;51.528;4.442;2024-01-16T11:54:42;9.00;59.20
82243;DHT22;71844;51.528;4.442;2024-01-16T11:57:53;9.10;58.90
82243;DHT22;71844;51.528;4.442;2024-01-16T12:00:21;9.40;56.00
82243;DHT22;71844;51.528;4.442;2024-01-16T12:02:56;9.70;57.70
82243;DHT22;71844;51.528;4.442;2024-01-16T12:05:23;9.90;55.80
82243;DHT22;71844;51.528;4.442;2024-01-16T12:07:52;10.00;56.40
82243;DHT22;71844;51.528;4.442;2024-01-16T12:10:22;10.30;56.30
82243;DHT22;71844;51.528;4.442;2024-01-16T12:12:51;10.40;55.30
82243;DHT22;71844;51.528;4.442;2024-01-16T12:15:19;10.60;55.00
82243;DHT22;71844;51.528;4.442;2024-01-16T12:18:02;10.70;54.30
82243;DHT22;71844;51.528;4.442;2024-01-16T12:20:33;10.70;48.00
82243;DHT22;71844;51.528;4.442;2024-01-16T12:23:05;10.50;52.20
82243;DHT22;71844;51.528;4.442;2024-01-16T12:25:33;10.50;52.60
82243;DHT22;71844;51.528;4.442;2024-01-16T12:28:21;10.60;52.50
82243;DHT22;71844;51.528;4.442;2024-01-16T12:30:51;10.80;52.90
82243;DHT22;71844;51.528;4.442;2024-01-16T12:33:22;11.00;52.60
82243;DHT22;71844;51.528;4.442;2024-01-16T12:35:49;11.20;51.90
82243;DHT22;71844;51.528;4.442;2024-01-16T12:38:17;11.10;51.60
82243;DHT22;71844;51.528;4.442;2024-01-16T12:40:51;11.20;51.20
82243;DHT22;71844;51.528;4.442;2024-01-16T12:43:19;11.10;50.60
82243;DHT22;71844;51.528;4.442;2024-01-16T12:45:46;11.20;50.70
82243;DHT22;71844;51.528;4.442;2024-01-16T12:48:13;11.30;50.60
82243;DHT22;71844;51.528;4.442;2024-01-16T12:50:40;11.50;50.30
82243;DHT22;71844;51.528;4.442;2024-01-16T12:53:11;11.60;50.30
82243;DHT22;71844;51.528;4.442;2024-01-16T12:55:39;11.90;49.90
82243;DHT22;71844;51.528;4.442;2024-01-16T13:00:39;12.20;49.50
82243;DHT22;71844;51.528;4.442;2024-01-16T13:03:07;12.30;49.40
82243;DHT22;71844;51.528;4.442;2024-01-16T13:05:34;12.40;49.10
82243;DHT22;71844;51.528;4.442;2024-01-16T13:08:01;12.30;48.30
82243;DHT22;71844;51.528;4.442;2024-01-16T13:10:29;11.70;48.20
82243;DHT22;71844;51.528;4.442;2024-01-16T13:15:40;11.40;48.20
82243;DHT22;71844;51.528;4.442;2024-01-16T13:18:17;11.50;48.70
82243;DHT22;71844;51.528;4.442;2024-01-16T13:20:45;11.50;47.40
82243;DHT22;71844;51.528;4.442;2024-01-16T13:23:13;11.50;48.50
82243;DHT22;71844;51.528;4.442;2024-01-16T13:25:44;11.60;48.30
82243;DHT22;71844;51.528;4.442;2024-01-16T13:28:15;11.80;48.00
82243;DHT22;71844;51.528;4.442;2024-01-16T13:30:46;11.90;47.20
82243;DHT22;71844;51.528;4.442;2024-01-16T13:33:14;11.90;47.20
82243;DHT22;71844;51.528;4.442;2024-01-16T13:35:44;11.80;46.80
82243;DHT22;71844;51.528;4.442;2024-01-16T13:38:13;11.70;47.00
82243;DHT22;71844;51.528;4.442;2024-01-16T13:40:42;11.80;47.00
82243;DHT22;71844;51.528;4.442;2024-01-16T13:43:08;11.80;46.90
82243;DHT22;71844;51.528;4.442;2024-01-16T13:45:35;11.40;46.70
82243;DHT22;71844;51.528;4.442;2024-01-16T13:48:03;10.90;47.80
82243;DHT22;71844;51.528;4.442;2024-01-16T13:50:31;10.40;48.10
82243;DHT22;71844;51.528;4.442;2024-01-16T13:53:00;9.80;48.50
82243;DHT22;71844;51.528;4.442;2024-01-16T13:55:28;9.20;49.40
82243;DHT22;71844;51.528;4.442;2024-01-16T13:57:55;8.70;49.90
82243;DHT22;71844;51.528;4.442;2024-01-16T14:00:24;8.30;50.40
82243;DHT22;71844;51.528;4.442;2024-01-16T14:02:51;8.10;50.90
82243;DHT22;71844;51.528;4.442;2024-01-16T14:05:19;7.90;50.60
82243;DHT22;71844;51.528;4.442;2024-01-16T14:07:48;7.50;51.10
82243;DHT22;71844;51.528;4.442;2024-01-16T14:10:18;7.20;51.50
82243;DHT22;71844;51.528;4.442;2024-01-16T14:12:47;6.80;52.20
82243;DHT22;71844;51.528;4.442;2024-01-16T14:15:15;6.50;52.70
82243;DHT22;71844;51.528;4.442;2024-01-16T14:17:48;6.20;53.40
82243;DHT22;71844;51.528;4.442;2024-01-16T14:20:17;6.10;53.70
82243;DHT22;71844;51.528;4.442;2024-01-16T14:22:44;5.90;54.00
82243;DHT22;71844;51.528;4.442;2024-01-16T14:25:13;5.70;54.50
82243;DHT22;71844;51.528;4.442;2024-01-16T14:27:43;5.60;54.70
82243;DHT22;71844;51.528;4.442;2024-01-16T14:30:14;5.50;55.10
82243;DHT22;71844;51.528;4.442;2024-01-16T14:32:44;5.40;55.40
82243;DHT22;71844;51.528;4.442;2024-01-16T14:35:13;5.30;55.50
82243;DHT22;71844;51.528;4.442;2024-01-16T14:37:40;5.20;55.70
82243;DHT22;71844;51.528;4.442;2024-01-16T14:40:07;5.20;55.90
82243;DHT22;71844;51.528;4.442;2024-01-16T14:42:47;5.10;56.50
82243;DHT22;71844;51.528;4.442;2024-01-16T14:45:15;5.10;56.50
82243;DHT22;71844;51.528;4.442;2024-01-16T14:47:42;5.00;56.70
82243;DHT22;71844;51.528;4.442;2024-01-16T14:50:12;5.00;56.60
82243;DHT22;71844;51.528;4.442;2024-01-16T14:52:40;5.00;56.70
82243;DHT22;71844;51.528;4.442;2024-01-16T14:55:07;4.80;57.10
82243;DHT22;71844;51.528;4.442;2024-01-16T14:57:34;4.70;57.50
82243;DHT22;71844;51.528;4.442;2024-01-16T15:00:12;4.70;57.50
82243;DHT22;71844;51.528;4.442;2024-01-16T15:02:42;4.70;57.90
82243;DHT22;71844;51.528;4.442;2024-01-16T15:05:09;4.60;57.90
82243;DHT22;71844;51.528;4.442;2024-01-16T15:07:36;4.60;58.30
82243;DHT22;71844;51.528;4.442;2024-01-16T15:10:05;4.50;58.40
82243;DHT22;71844;51.528;4.442;2024-01-16T15:12:32;4.40;58.40
82243;DHT22;71844;51.528;4.442;2024-01-16T15:14:59;4.40;58.60
82243;DHT22;71844;51.528;4.442;2024-01-16T15:17:26;4.40;59.00
82243;DHT22;71844;51.528;4.442;2024-01-16T15:19:55;4.30;59.10
82243;DHT22;71844;51.528;4.442;2024-01-16T15:22:22;4.30;59.10
82243;DHT22;71844;51.528;4.442;2024-01-16T15:24:49;4.30;59.30
82243;DHT22;71844;51.528;4.442;2024-01-16T15:27:16;4.20;59.40
82243;DHT22;71844;51.528;4.442;2024-01-16T15:29:43;4.20;59.70
82243;DHT22;71844;51.528;4.442;2024-01-16T15:32:10;4.20;59.90
82243;DHT22;71844;51.528;4.442;2024-01-16T15:34:37;4.20;60.10
82243;DHT22;71844;51.528;4.442;2024-01-16T15:37:04;4.20;59.90
82243;DHT22;71844;51.528;4.442;2024-01-16T15:39:31;4.00;60.20
82243;DHT22;71844;51.528;4.442;2024-01-16T15:41:58;4.00;60.30
82243;DHT22;71844;51.528;4.442;2024-01-16T15:44:25;4.00;60.50
82243;DHT22;71844;51.528;4.442;2024-01-16T15:46:56;3.90;60.60
82243;DHT22;71844;51.528;4.442;2024-01-16T15:49:24;3.80;60.70
82243;DHT22;71844;51.528;4.442;2024-01-16T15:51:51;3.80;60.60
82243;DHT22;71844;51.528;4.442;2024-01-16T15:54:19;3.70;60.90
82243;DHT22;71844;51.528;4.442;2024-01-16T15:56:46;3.60;61.10
82243;DHT22;71844;51.528;4.442;2024-01-16T15:59:15;3.50;61.10
82243;DHT22;71844;51.528;4.442;2024-01-16T16:01:42;3.50;61.30
82243;DHT22;71844;51.528;4.442;2024-01-16T16:04:10;3.40;61.50
82243;DHT22;71844;51.528;4.442;2024-01-16T16:06:38;3.30;61.50
82243;DHT22;71844;51.528;4.442;2024-01-16T16:09:05;3.30;61.60
82243;DHT22;71844;51.528;4.442;2024-01-16T16:11:42;3.20;61.70